X  Schlie├čen METAR Luftfahrt Wetterdaten     EDDH Hamburg Helmut Schmidt Airport
Temperatur
11°C Temperatur
9°C Taupunkt
88% Feuchtigkeit



Wind
0 M/S
1 MPS
2 KM/S
1 KTS



Kein Wind
N
Aktuelle Wetterlage

Klar Klar
Luftdruck 1023.03 (hPa) - 30.21 (inHg)
Sichtweite 6 (Meile) - 9.7 (Km)
Flughafen
Flughafen Code EDDH

Position : Hamburg Helmut Schmidt Airport
Entfernung: 11 (Km)

Metar:
EDDH 200420Z AUTO VRB01KT CAVOK 11/09 Q1023 NOSIG

Zeit: 20-06-2024 06:20 CEST